TimeEST,TemperatureF,Dew PointF,Humidity,Sea Level PressureIn,VisibilityMPH,Wind Direction,Wind SpeedMPH,Gust SpeedMPH,PrecipitationIn,Events,Conditions,WindDirDegrees,DateUTC
12:15 AM,35.4,35.1,99,29.62,10.0,WSW,6.9,-,N/A,,Clear,240,2012-12-27 05:15:00
12:35 AM,35.8,34.9,97,29.63,10.0,WSW,5.8,-,N/A,,Clear,240,2012-12-27 05:35:00
12:55 AM,36.5,33.4,89,29.64,10.0,WSW,6.9,-,N/A,,Clear,250,2012-12-27 05:55:00
1:15 AM,36.7,32.9,86,29.65,10.0,West,9.2,-,N/A,,Clear,260,2012-12-27 06:15:00
1:35 AM,37.9,32.2,80,29.66,10.0,West,10.4,17.3,N/A,,Clear,260,2012-12-27 06:35:00
1:55 AM,37.9,32.0,79,29.66,10.0,West,9.2,-,N/A,,Clear,260,2012-12-27 06:55:00
2:15 AM,38.3,32.0,78,29.67,10.0,West,9.2,-,N/A,,Clear,270,2012-12-27 07:15:00
2:35 AM,37.8,31.8,79,29.68,10.0,West,10.4,16.1,N/A,,Clear,270,2012-12-27 07:35:00
2:55 AM,38.3,31.3,76,29.69,10.0,West,9.2,16.1,N/A,,Clear,270,2012-12-27 07:55:00
3:15 AM,38.3,31.1,75,29.69,10.0,WNW,6.9,-,N/A,,Mostly Cloudy,290,2012-12-27 08:15:00
3:35 AM,38.1,30.4,74,29.69,10.0,West,8.1,-,N/A,,Scattered Clouds,280,2012-12-27 08:35:00
3:55 AM,37.4,30.2,75,29.69,10.0,West,9.2,-,N/A,,Clear,280,2012-12-27 08:55:00
4:15 AM,37.0,30.0,76,29.71,10.0,West,8.1,-,N/A,,Clear,270,2012-12-27 09:15:00
4:55 AM,37.9,29.5,72,29.73,10.0,West,8.1,17.3,N/A,,Mostly Cloudy,280,2012-12-27 09:55:00
5:15 AM,37.9,30.0,73,29.75,10.0,WSW,5.8,-,N/A,,Overcast,240,2012-12-27 10:15:00
5:35 AM,37.9,29.3,71,29.76,10.0,West,10.4,-,N/A,,Overcast,260,2012-12-27 10:35:00
5:55 AM,37.9,29.1,71,29.77,10.0,West,9.2,-,N/A,,Overcast,280,2012-12-27 10:55:00
6:15 AM,37.6,28.4,69,29.78,10.0,WNW,8.1,16.1,N/A,,Mostly Cloudy,290,2012-12-27 11:15:00
6:35 AM,36.9,28.0,70,29.79,10.0,West,6.9,-,N/A,,Scattered Clouds,270,2012-12-27 11:35:00
6:55 AM,36.7,27.9,70,29.80,10.0,West,5.8,-,N/A,,Mostly Cloudy,280,2012-12-27 11:55:00
7:15 AM,36.5,27.7,70,29.81,10.0,West,5.8,-,N/A,,Overcast,280,2012-12-27 12:15:00
7:35 AM,35.4,27.7,73,29.82,10.0,West,3.5,-,N/A,,Mostly Cloudy,280,2012-12-27 12:35:00
7:55 AM,33.4,27.9,80,29.83,10.0,Calm,Calm,-,N/A,,Scattered Clouds,0,2012-12-27 12:55:00
8:15 AM,34.3,28.8,80,29.84,10.0,Calm,Calm,-,N/A,,Clear,0,2012-12-27 13:15:00
8:35 AM,36.5,28.6,73,29.86,10.0,Calm,Calm,-,N/A,,Clear,0,2012-12-27 13:35:00
8:55 AM,35.6,29.5,78,29.87,10.0,Calm,Calm,-,N/A,,Scattered Clouds,0,2012-12-27 13:55:00
9:15 AM,36.3,30.0,78,29.88,10.0,Calm,Calm,-,N/A,,Mostly Cloudy,0,2012-12-27 14:15:00
9:35 AM,39.0,29.8,70,29.89,10.0,Calm,Calm,-,N/A,,Mostly Cloudy,0,2012-12-27 14:35:00
10:15 AM,41.9,29.5,61,29.91,10.0,WNW,9.2,-,N/A,,Scattered Clouds,290,2012-12-27 15:15:00
10:35 AM,42.8,30.2,61,29.92,10.0,WNW,10.4,-,N/A,,Mostly Cloudy,290,2012-12-27 15:35:00
10:55 AM,41.4,28.4,60,29.93,10.0,NNW,3.5,-,N/A,,Overcast,340,2012-12-27 15:55:00
11:15 AM,43.2,29.3,58,29.93,10.0,WSW,9.2,-,N/A,,Mostly Cloudy,250,2012-12-27 16:15:00
11:35 AM,44.1,29.5,57,29.92,10.0,NW,5.8,-,N/A,,Mostly Cloudy,320,2012-12-27 16:35:00
11:55 AM,44.1,29.5,57,29.92,10.0,West,9.2,-,N/A,,Mostly Cloudy,260,2012-12-27 16:55:00
12:15 PM,43.7,29.5,57,29.92,10.0,West,6.9,-,N/A,,Scattered Clouds,260,2012-12-27 17:15:00
12:35 PM,45.7,30.0,54,29.92,10.0,West,10.4,17.3,N/A,,Mostly Cloudy,260,2012-12-27 17:35:00
12:55 PM,45.7,29.8,54,29.93,10.0,WNW,10.4,18.4,N/A,,Scattered Clouds,290,2012-12-27 17:55:00
1:15 PM,45.9,29.5,53,29.93,10.0,West,11.5,18.4,N/A,,Scattered Clouds,280,2012-12-27 18:15:00
1:35 PM,46.4,29.3,51,29.93,10.0,West,8.1,18.4,N/A,,Scattered Clouds,270,2012-12-27 18:35:00
1:55 PM,46.0,28.6,51,29.93,10.0,NNW,10.4,17.3,N/A,,Scattered Clouds,330,2012-12-27 18:55:00
2:15 PM,47.3,29.3,50,29.94,10.0,West,9.2,17.3,N/A,,Scattered Clouds,270,2012-12-27 19:15:00
2:35 PM,46.6,28.9,50,29.94,10.0,WNW,8.1,17.3,N/A,,Scattered Clouds,290,2012-12-27 19:35:00
2:55 PM,46.4,28.9,51,29.94,10.0,West,8.1,-,N/A,,Clear,280,2012-12-27 19:55:00
3:35 PM,44.1,28.4,54,29.96,10.0,NW,4.6,-,N/A,,Clear,320,2012-12-27 20:35:00
3:55 PM,43.7,28.4,55,29.98,10.0,WNW,6.9,-,N/A,,Clear,300,2012-12-27 20:55:00
4:15 PM,43.7,28.2,54,29.99,10.0,NW,9.2,-,N/A,,Clear,320,2012-12-27 21:15:00
4:35 PM,42.1,27.9,57,30.00,10.0,WNW,4.6,-,N/A,,Clear,290,2012-12-27 21:35:00
4:55 PM,41.0,28.0,60,30.00,10.0,NNW,4.6,-,N/A,,Clear,330,2012-12-27 21:55:00
5:15 PM,38.7,27.5,64,30.01,10.0,North,8.1,-,N/A,,Clear,350,2012-12-27 22:15:00
5:35 PM,37.6,27.0,66,30.03,10.0,Calm,Calm,-,N/A,,Clear,0,2012-12-27 22:35:00
5:55 PM,36.5,26.6,67,30.04,10.0,Calm,Calm,-,N/A,,Clear,0,2012-12-27 22:55:00
6:15 PM,35.8,26.2,68,30.06,10.0,NW,4.6,-,N/A,,Clear,320,2012-12-27 23:15:00
6:35 PM,35.6,26.2,69,30.06,10.0,Calm,Calm,-,N/A,,Clear,0,2012-12-27 23:35:00
6:55 PM,34.3,26.1,72,30.07,10.0,NW,3.5,-,N/A,,Clear,320,2012-12-27 23:55:00
7:15 PM,34.0,25.9,72,30.08,10.0,Calm,Calm,-,N/A,,Clear,0,2012-12-28 00:15:00
7:35 PM,34.0,25.7,72,30.08,10.0,Calm,Calm,-,N/A,,Clear,0,2012-12-28 00:35:00
7:55 PM,32.4,25.3,75,30.08,10.0,Calm,Calm,-,N/A,,Clear,0,2012-12-28 00:55:00
8:15 PM,32.7,25.2,74,30.08,10.0,NW,3.5,-,N/A,,Clear,320,2012-12-28 01:15:00
8:35 PM,32.4,25.0,74,30.08,10.0,Calm,Calm,-,N/A,,Clear,0,2012-12-28 01:35:00
8:55 PM,32.4,25.0,74,30.08,10.0,Calm,Calm,-,N/A,,Clear,0,2012-12-28 01:55:00
9:15 PM,32.0,25.0,75,30.08,10.0,Calm,Calm,-,N/A,,Clear,0,2012-12-28 02:15:00
9:35 PM,31.5,24.8,76,30.09,10.0,Calm,Calm,-,N/A,,Clear,0,2012-12-28 02:35:00
9:55 PM,30.0,24.6,80,30.09,10.0,Calm,Calm,-,N/A,,Clear,0,2012-12-28 02:55:00
10:15 PM,30.2,24.4,79,30.10,10.0,Calm,Calm,-,N/A,,Clear,0,2012-12-28 03:15:00
10:35 PM,30.4,24.1,77,30.09,10.0,Calm,Calm,-,N/A,,Clear,0,2012-12-28 03:35:00
10:55 PM,31.5,24.1,74,30.11,10.0,Calm,Calm,-,N/A,,Clear,0,2012-12-28 03:55:00
11:15 PM,30.9,23.9,75,30.11,10.0,Calm,Calm,-,N/A,,Clear,0,2012-12-28 04:15:00
11:35 PM,31.3,23.9,74,30.11,10.0,Calm,Calm,-,N/A,,Clear,0,2012-12-28 04:35:00
11:55 PM,30.7,23.9,76,30.10,10.0,NNW,3.5,-,N/A,,Clear,340,2012-12-28 04:55:00